createdAt,value
2023-04-01T00:00:38.606Z,47.28
2023-04-01T00:03:42.249Z,47.33
2023-04-01T00:06:45.687Z,47.26
2023-04-01T00:09:50.076Z,47.29
2023-04-01T00:12:53.037Z,47.36
2023-04-01T00:15:57.488Z,47.30
2023-04-01T00:19:01.055Z,47.29
2023-04-01T00:22:04.049Z,47.24
2023-04-01T00:25:09.454Z,47.29
2023-04-01T00:28:12.367Z,47.26
2023-04-01T00:31:15.812Z,47.33
2023-04-01T00:34:18.758Z,47.37
2023-04-01T00:37:22.069Z,47.47
2023-04-01T00:40:29.582Z,47.39
2023-04-01T00:43:32.620Z,47.41
2023-04-01T00:46:36.622Z,47.38
2023-04-01T00:49:42.582Z,47.40
2023-04-01T00:52:45.590Z,47.38
2023-04-01T00:55:55.347Z,47.32
2023-04-01T00:59:02.656Z,47.34
2023-04-01T01:02:09.389Z,47.27
2023-04-01T01:05:14.635Z,47.36
2023-04-01T01:08:23.398Z,47.43
2023-04-01T01:11:42.751Z,47.30
2023-04-01T01:14:56.165Z,47.43
2023-04-01T01:18:06.344Z,47.31
2023-04-01T01:21:41.015Z,47.44
2023-04-01T01:24:56.649Z,47.38
2023-04-01T01:28:16.879Z,47.44
2023-04-01T01:31:25.730Z,47.48
2023-04-01T01:34:33.728Z,47.40
2023-04-01T01:37:40.375Z,47.48
2023-04-01T01:40:46.315Z,47.33
2023-04-01T01:43:53.125Z,47.41
2023-04-01T01:46:56.856Z,47.42
2023-04-01T01:50:00.588Z,47.37
2023-04-01T01:53:06.869Z,47.43
2023-04-01T01:56:10.132Z,47.32
2023-04-01T01:59:18.274Z,47.41
2023-04-01T02:02:23.769Z,47.47
2023-04-01T02:05:30.269Z,47.34
2023-04-01T02:08:45.705Z,47.41
2023-04-01T02:11:53.776Z,47.54
2023-04-01T02:15:03.236Z,47.53
2023-04-01T02:18:07.880Z,47.44
2023-04-01T02:21:11.972Z,47.40
2023-04-01T02:24:17.174Z,47.44
2023-04-01T02:27:21.853Z,47.35
2023-04-01T02:30:26.893Z,47.35
2023-04-01T02:33:30.939Z,47.45
2023-04-01T02:36:34.472Z,47.34
2023-04-01T02:39:38.777Z,47.38
2023-04-01T02:42:42.347Z,47.37
2023-04-01T02:45:45.799Z,47.38
2023-04-01T02:48:48.710Z,47.32
2023-04-01T02:51:52.857Z,47.34
2023-04-01T02:54:58.481Z,47.30
2023-04-01T02:58:02.043Z,47.32
2023-04-01T03:01:06.013Z,47.23
2023-04-01T03:04:08.970Z,47.27
2023-04-01T03:07:12.240Z,47.24
2023-04-01T03:10:16.927Z,47.24
2023-04-01T03:13:19.855Z,47.29
2023-04-01T03:16:22.854Z,47.19
2023-04-01T03:19:27.288Z,47.25
2023-04-01T03:22:30.232Z,47.25
2023-04-01T03:25:34.872Z,47.19
2023-04-01T03:28:38.213Z,47.31
2023-04-01T03:31:41.144Z,47.27
2023-04-01T03:34:44.220Z,47.19
2023-04-01T03:37:47.302Z,47.18
2023-04-01T03:40:51.542Z,47.21
2023-04-01T03:43:55.976Z,47.23
2023-04-01T03:46:58.908Z,47.13
2023-04-01T03:50:01.919Z,47.12
2023-04-01T03:53:04.901Z,47.24
2023-04-01T03:56:10.527Z,47.23
2023-04-01T03:59:13.769Z,47.19
2023-04-01T04:02:16.900Z,47.22
2023-04-01T04:05:19.901Z,47.11
2023-04-01T04:08:23.122Z,47.17
2023-04-01T04:11:28.310Z,47.15
2023-04-01T04:14:31.198Z,47.24
2023-04-01T04:17:34.463Z,47.25
2023-04-01T04:20:37.362Z,47.13
2023-04-01T04:23:40.399Z,47.26
2023-04-01T04:26:44.901Z,47.11
2023-04-01T04:29:47.910Z,47.15
2023-04-01T04:32:50.915Z,47.09
2023-04-01T04:35:57.315Z,47.13
2023-04-01T04:39:02.990Z,47.24
2023-04-01T04:42:07.928Z,47.20
2023-04-01T04:45:12.835Z,47.09
2023-04-01T04:48:21.307Z,47.17
2023-04-01T04:51:25.877Z,47.22
2023-04-01T04:54:29.244Z,46.99
2023-04-01T04:57:36.395Z,47.21
2023-04-01T05:00:39.413Z,47.20
2023-04-01T05:03:47.043Z,47.17
2023-04-01T05:06:50.103Z,47.15
2023-04-01T05:09:54.202Z,47.21
2023-04-01T05:12:58.543Z,47.22
2023-04-01T05:16:01.538Z,47.10
2023-04-01T05:19:04.841Z,47.07
2023-04-01T05:22:08.734Z,47.07
2023-04-01T05:25:12.613Z,47.13
2023-04-01T05:28:17.248Z,47.07
2023-04-01T05:31:22.442Z,47.23
2023-04-01T05:34:26.386Z,47.21
2023-04-01T05:37:29.384Z,47.16
2023-04-01T05:40:32.946Z,47.19
2023-04-01T05:43:40.600Z,47.15
2023-04-01T05:47:06.930Z,47.15
2023-04-01T05:50:11.689Z,47.25
2023-04-01T05:53:14.755Z,47.10
2023-04-01T05:56:19.973Z,47.20
2023-04-01T05:59:28.470Z,47.23
2023-04-01T06:02:31.709Z,47.11
2023-04-01T06:05:41.455Z,47.11
2023-04-01T06:08:44.727Z,47.18
2023-04-01T06:12:10.271Z,47.07
2023-04-01T06:15:40.483Z,46.98
2023-04-01T06:19:07.708Z,47.11
2023-04-01T06:22:44.039Z,47.12
2023-04-01T06:26:11.506Z,47.16
2023-04-01T06:29:43.348Z,47.10
2023-04-01T06:33:03.227Z,47.12
2023-04-01T06:36:39.431Z,47.06
2023-04-01T06:40:05.348Z,47.00
2023-04-01T06:43:19.433Z,47.19
2023-04-01T06:47:01.217Z,47.10
2023-04-01T06:50:31.042Z,47.08
2023-04-01T06:53:58.861Z,47.05
2023-04-01T06:57:28.512Z,47.10
2023-04-01T07:00:34.882Z,47.05
2023-04-01T07:03:42.329Z,47.04
2023-04-01T07:06:52.275Z,47.06
2023-04-01T07:10:02.075Z,47.02
2023-04-01T07:13:14.987Z,47.11
2023-04-01T07:16:42.493Z,47.13
2023-04-01T07:19:49.783Z,47.04
2023-04-01T07:22:58.337Z,47.00
2023-04-01T07:26:17.809Z,47.11
2023-04-01T07:29:38.735Z,47.04
2023-04-01T07:32:45.247Z,46.98
2023-04-01T07:35:55.103Z,46.91
2023-04-01T07:39:11.521Z,47.10
2023-04-01T07:42:43.571Z,47.02
2023-04-01T07:45:56.242Z,47.09
2023-04-01T07:49:06.585Z,47.01
2023-04-01T07:52:19.116Z,47.01
2023-04-01T07:55:32.736Z,46.99
2023-04-01T07:58:47.467Z,47.10
2023-04-01T08:02:17.218Z,47.02
2023-04-01T08:05:28.241Z,47.16
2023-04-01T08:08:44.732Z,47.07
2023-04-01T08:12:20.282Z,47.07
2023-04-01T08:15:47.361Z,47.07
2023-04-01T08:19:06.699Z,47.14
2023-04-01T08:22:15.566Z,47.02
2023-04-01T08:25:24.677Z,47.02
2023-04-01T08:28:34.660Z,46.92
2023-04-01T08:31:43.539Z,46.98
2023-04-01T08:34:50.526Z,47.01
2023-04-01T08:38:08.299Z,47.10
2023-04-01T08:41:43.197Z,47.03
2023-04-01T08:45:28.321Z,46.96
2023-04-01T08:49:05.146Z,46.97
2023-04-01T08:52:30.839Z,46.89
2023-04-01T08:55:46.094Z,46.93
2023-04-01T08:59:06.802Z,46.95
2023-04-01T09:02:31.848Z,47.06
2023-04-01T09:06:05.626Z,46.98
2023-04-01T09:09:38.898Z,47.01
2023-04-01T09:12:59.710Z,46.95
2023-04-01T09:16:18.953Z,47.03
2023-04-01T09:19:36.187Z,46.94
2023-04-01T09:22:52.496Z,47.01
2023-04-01T09:26:02.732Z,47.07
2023-04-01T09:29:19.342Z,46.99
2023-04-01T09:32:58.540Z,46.95
2023-04-01T09:36:14.265Z,46.95
2023-04-01T09:39:38.305Z,46.94
2023-04-01T09:43:00.806Z,47.02
2023-04-01T09:46:21.275Z,46.87
2023-04-01T09:49:58.223Z,47.04
2023-04-01T09:53:17.001Z,46.99
2023-04-01T09:56:54.217Z,46.96
2023-04-01T10:00:28.788Z,46.93
2023-04-01T10:04:11.045Z,46.94
2023-04-01T10:07:42.009Z,46.71
2023-04-01T10:11:14.165Z,46.93
2023-04-01T10:14:39.713Z,46.93
2023-04-01T10:17:57.696Z,46.83
2023-04-01T10:21:27.602Z,46.94
2023-04-01T10:25:20.785Z,46.89
2023-04-01T10:28:55.496Z,46.83
2023-04-01T10:32:33.466Z,46.88
2023-04-01T10:36:31.273Z,46.93
2023-04-01T10:40:07.343Z,46.89
2023-04-01T10:44:02.182Z,46.89
2023-04-01T10:47:54.788Z,46.91
2023-04-01T10:51:19.826Z,46.94
2023-04-01T10:54:45.381Z,46.92
2023-04-01T10:58:52.218Z,46.86
2023-04-01T11:03:13.060Z,46.89
2023-04-01T11:07:19.776Z,46.89
2023-04-01T11:10:50.097Z,46.94
2023-04-01T11:14:38.652Z,46.88
2023-04-01T11:18:19.872Z,46.91
2023-04-01T11:21:54.517Z,46.85
2023-04-01T11:25:32.001Z,46.91
2023-04-01T11:29:17.602Z,46.90
2023-04-01T11:32:44.569Z,46.78
2023-04-01T11:36:03.012Z,46.74
2023-04-01T11:39:21.878Z,46.77
2023-04-01T11:42:53.708Z,46.89
2023-04-01T11:46:26.083Z,46.79
2023-04-01T11:49:43.282Z,46.76
2023-04-01T11:53:29.318Z,46.92
2023-04-01T11:56:55.992Z,46.82
2023-04-01T12:00:18.050Z,46.81
2023-04-01T12:03:45.438Z,46.92
2023-04-01T12:06:53.705Z,46.77
2023-04-01T12:10:07.336Z,46.85
2023-04-01T12:13:23.240Z,46.78
2023-04-01T12:16:44.069Z,46.84
2023-04-01T12:19:54.826Z,46.90
2023-04-01T12:23:07.680Z,46.74
2023-04-01T12:26:39.504Z,46.94
2023-04-01T12:29:59.808Z,46.77
2023-04-01T12:33:19.626Z,46.81
2023-04-01T12:36:34.053Z,46.79
2023-04-01T12:40:22.839Z,46.80
2023-04-01T12:43:44.974Z,46.84
2023-04-01T12:47:08.717Z,46.81
2023-04-01T12:50:24.939Z,46.75
2023-04-01T12:53:44.219Z,46.81
2023-04-01T12:56:59.595Z,46.71
2023-04-01T13:00:25.474Z,46.81
2023-04-01T13:03:53.410Z,46.73
2023-04-01T13:07:18.586Z,46.78
2023-04-01T13:10:40.154Z,46.77
2023-04-01T13:14:05.914Z,46.77
2023-04-01T13:17:15.241Z,46.83
2023-04-01T13:20:31.454Z,46.74
2023-04-01T13:23:54.048Z,46.80
2023-04-01T13:27:03.609Z,46.76
2023-04-01T13:30:24.246Z,46.74
2023-04-01T13:33:35.918Z,46.71
2023-04-01T13:36:53.983Z,46.67
2023-04-01T13:40:16.178Z,46.65
2023-04-01T13:43:24.574Z,46.71
2023-04-01T13:46:43.737Z,46.69
2023-04-01T13:50:04.032Z,46.67
2023-04-01T13:53:55.296Z,46.71
2023-04-01T13:57:16.345Z,46.75
2023-04-01T14:00:27.671Z,46.79
2023-04-01T14:03:42.481Z,46.73
2023-04-01T14:06:58.837Z,46.79
2023-04-01T14:10:10.200Z,46.75
2023-04-01T14:13:19.929Z,46.72
2023-04-01T14:16:39.931Z,46.77
2023-04-01T14:20:03.917Z,46.75
2023-04-01T14:23:32.605Z,46.82
2023-04-01T14:27:11.155Z,46.69
2023-04-01T14:30:42.854Z,46.68
2023-04-01T14:33:59.228Z,46.74
2023-04-01T14:37:22.576Z,46.67
2023-04-01T14:40:30.962Z,46.73
2023-04-01T14:44:06.757Z,46.78
2023-04-01T14:47:36.613Z,46.67
2023-04-01T14:50:46.316Z,46.66
2023-04-01T14:54:00.997Z,46.69
2023-04-01T14:57:12.835Z,46.70
2023-04-01T15:00:19.707Z,46.64
2023-04-01T15:03:28.928Z,46.68
2023-04-01T15:06:51.018Z,46.68
2023-04-01T15:10:03.029Z,46.73
2023-04-01T15:13:16.117Z,46.60
2023-04-01T15:16:28.531Z,46.77
2023-04-01T15:19:43.489Z,46.72
2023-04-01T15:22:59.749Z,46.66
2023-04-01T15:26:19.323Z,46.72
2023-04-01T15:29:53.067Z,46.82
2023-04-01T15:33:30.955Z,46.70
2023-04-01T15:36:45.373Z,46.70
2023-04-01T15:39:58.029Z,46.57
2023-04-01T15:43:15.430Z,46.57
2023-04-01T15:46:32.804Z,46.53
2023-04-01T15:49:41.829Z,46.63
2023-04-01T15:52:51.907Z,46.59
2023-04-01T15:56:01.445Z,46.64
2023-04-01T15:59:22.243Z,46.62
2023-04-01T16:02:33.686Z,46.59
2023-04-01T16:05:52.358Z,46.57
2023-04-01T16:09:11.712Z,46.60
2023-04-01T16:12:20.621Z,46.57
2023-04-01T16:15:29.035Z,46.58
2023-04-01T16:19:00.571Z,46.63
2023-04-01T16:22:10.729Z,46.69
2023-04-01T16:25:22.913Z,46.55
2023-04-01T16:28:32.602Z,46.56
2023-04-01T16:31:44.461Z,46.62
2023-04-01T16:34:58.195Z,46.68
2023-04-01T16:38:11.643Z,46.63
2023-04-01T16:41:19.298Z,46.63
2023-04-01T16:44:25.180Z,46.61
2023-04-01T16:47:33.446Z,46.60
2023-04-01T16:50:49.034Z,46.60
2023-04-01T16:54:04.616Z,46.60
2023-04-01T16:57:20.183Z,46.52
2023-04-01T17:00:28.878Z,46.57
2023-04-01T17:03:35.577Z,46.61
2023-04-01T17:06:47.827Z,46.55
2023-04-01T17:10:08.599Z,46.49
2023-04-01T17:13:30.124Z,46.58
2023-04-01T17:17:07.554Z,46.57
2023-04-01T17:20:28.376Z,46.59
2023-04-01T17:23:37.734Z,46.51
2023-04-01T17:26:48.381Z,46.53
2023-04-01T17:30:20.549Z,46.53
2023-04-01T17:33:48.239Z,46.54
2023-04-01T17:37:02.752Z,46.50
2023-04-01T17:40:32.707Z,46.47
2023-04-01T17:43:44.610Z,46.51
2023-04-01T17:47:02.010Z,46.48
2023-04-01T17:50:21.679Z,46.48
2023-04-01T17:53:35.962Z,46.53
2023-04-01T17:56:51.715Z,46.48
2023-04-01T18:00:04.716Z,46.44
2023-04-01T18:03:24.433Z,46.42
2023-04-01T18:06:37.238Z,46.44
2023-04-01T18:09:52.442Z,46.23
2023-04-01T18:13:29.428Z,46.42
2023-04-01T18:16:54.717Z,46.49
2023-04-01T18:20:36.392Z,46.42
2023-04-01T18:23:55.659Z,46.45
2023-04-01T18:27:06.909Z,46.33
2023-04-01T18:30:15.652Z,46.34
2023-04-01T18:33:25.303Z,46.14
2023-04-01T18:36:42.118Z,46.35
2023-04-01T18:39:53.209Z,46.40
2023-04-01T18:43:05.089Z,46.39
2023-04-01T18:46:20.103Z,46.37
2023-04-01T18:49:32.369Z,46.37
2023-04-01T18:52:38.253Z,46.40
2023-04-01T18:55:44.183Z,46.37
2023-04-01T18:58:52.358Z,46.31
2023-04-01T19:02:04.905Z,46.38
2023-04-01T19:05:18.215Z,46.26
2023-04-01T19:08:28.494Z,46.21
2023-04-01T19:11:45.080Z,46.39
2023-04-01T19:14:56.091Z,46.27
2023-04-01T19:18:24.286Z,46.32
2023-04-01T19:21:34.845Z,46.34
2023-04-01T19:24:57.596Z,46.34
2023-04-01T19:28:09.625Z,46.25
2023-04-01T19:31:26.452Z,46.29
2023-04-01T19:34:41.306Z,46.25
2023-04-01T19:37:53.093Z,46.23
2023-04-01T19:41:00.151Z,46.30
2023-04-01T19:44:14.638Z,46.27
2023-04-01T19:47:26.503Z,46.21
2023-04-01T19:50:36.798Z,46.48
2023-04-01T19:53:51.574Z,46.21
2023-04-01T19:57:03.223Z,46.23
2023-04-01T20:00:17.021Z,46.08
2023-04-01T20:03:33.907Z,46.30
2023-04-01T20:06:46.179Z,46.30
2023-04-01T20:09:59.625Z,46.30
2023-04-01T20:13:12.882Z,46.29
2023-04-01T20:16:17.073Z,46.35
2023-04-01T20:19:29.873Z,46.24
2023-04-01T20:22:54.094Z,46.28
2023-04-01T20:26:04.534Z,46.31
2023-04-01T20:29:37.749Z,46.23
2023-04-01T20:32:59.334Z,46.25
2023-04-01T20:36:13.586Z,46.34
2023-04-01T20:39:47.984Z,46.23
2023-04-01T20:43:17.768Z,46.20
2023-04-01T20:46:22.830Z,46.20
2023-04-01T20:49:35.980Z,46.23
2023-04-01T20:52:44.025Z,46.29
2023-04-01T20:56:03.990Z,46.15
2023-04-01T20:59:27.404Z,46.19
2023-04-01T21:02:49.247Z,46.28
2023-04-01T21:06:27.824Z,46.26
2023-04-01T21:09:43.874Z,46.21
2023-04-01T21:12:55.273Z,46.22
2023-04-01T21:16:27.408Z,46.20
2023-04-01T21:19:48.098Z,46.10
2023-04-01T21:23:06.671Z,46.19
2023-04-01T21:26:29.266Z,46.21
2023-04-01T21:29:47.052Z,46.17
2023-04-01T21:33:06.060Z,46.10
2023-04-01T21:36:22.118Z,46.23
2023-04-01T21:39:45.634Z,46.16
2023-04-01T21:42:55.687Z,46.19
2023-04-01T21:46:33.379Z,46.14
2023-04-01T21:49:51.983Z,46.17
2023-04-01T21:53:26.285Z,46.02
2023-04-01T21:57:06.276Z,46.01
2023-04-01T22:00:31.457Z,46.13
2023-04-01T22:04:02.890Z,46.09
2023-04-01T22:07:16.794Z,46.17
2023-04-01T22:10:31.638Z,46.08
2023-04-01T22:13:41.802Z,45.99
2023-04-01T22:16:51.129Z,46.16
2023-04-01T22:20:10.206Z,46.10
2023-04-01T22:23:26.770Z,46.06
2023-04-01T22:26:38.778Z,46.09
2023-04-01T22:29:50.291Z,46.05
2023-04-01T22:32:59.759Z,46.09
2023-04-01T22:36:13.869Z,46.03
2023-04-01T22:39:31.002Z,46.05
2023-04-01T22:42:44.444Z,45.96
2023-04-01T22:46:12.888Z,46.01
2023-04-01T22:49:23.673Z,46.05
2023-04-01T22:52:33.522Z,46.09
2023-04-01T22:55:52.691Z,46.07
2023-04-01T22:59:04.234Z,46.06
2023-04-01T23:02:15.622Z,46.08
2023-04-01T23:05:22.775Z,46.10
2023-04-01T23:08:44.529Z,46.02
2023-04-01T23:11:53.818Z,45.88
2023-04-01T23:14:59.890Z,45.95
2023-04-01T23:18:19.855Z,46.09
2023-04-01T23:21:34.455Z,46.08
2023-04-01T23:24:44.137Z,45.97
2023-04-01T23:27:58.489Z,45.97
2023-04-01T23:31:01.734Z,46.14
2023-04-01T23:34:11.093Z,46.05
2023-04-01T23:37:17.827Z,46.03
2023-04-01T23:40:20.772Z,46.20
2023-04-01T23:43:29.670Z,46.16
2023-04-01T23:46:35.923Z,46.19
2023-04-01T23:50:34.047Z,46.05
2023-04-01T23:54:03.148Z,46.07
2023-04-01T23:57:13.008Z,46.14
